createdAt,value
2023-03-31T00:02:14.855Z,97673.38
2023-03-31T00:05:09.051Z,97672.56
2023-03-31T00:07:56.579Z,97682.47
2023-03-31T00:13:47.157Z,97677.91
2023-03-31T00:16:32.586Z,97669.63
2023-03-31T00:19:28.157Z,97677.09
2023-03-31T00:22:18.081Z,97676.25
2023-03-31T00:24:45.651Z,97673.97
2023-03-31T00:27:13.429Z,97671.28
2023-03-31T00:29:43.786Z,97671.28
2023-03-31T00:32:10.986Z,97673.97
2023-03-31T00:34:38.767Z,97672.09
2023-03-31T00:37:05.708Z,97676.06
2023-03-31T00:39:35.508Z,97668.59
2023-03-31T00:42:03.997Z,97664.63
2023-03-31T00:44:33.766Z,97652.44
2023-03-31T00:47:24.486Z,97679.19
2023-03-31T00:49:59.909Z,97677.97
2023-03-31T00:52:35.812Z,97669.44
2023-03-31T00:55:09.221Z,97671.94
2023-03-31T00:57:41.827Z,97668.84
2023-03-31T01:00:19.210Z,97667.63
2023-03-31T01:02:59.892Z,97679.22
2023-03-31T01:05:32.974Z,97675.91
2023-03-31T01:08:31.454Z,97672.41
2023-03-31T01:11:23.622Z,97672.81
2023-03-31T01:14:10.107Z,97667.44
2023-03-31T01:16:50.820Z,97662.28
2023-03-31T01:19:44.760Z,97655.63
2023-03-31T01:22:58.124Z,97661.84
2023-03-31T01:26:01.685Z,97663.31
2023-03-31T01:29:07.091Z,97663.72
2023-03-31T01:32:02.119Z,97659.38
2023-03-31T01:34:58.125Z,97655.66
2023-03-31T01:37:48.910Z,97650.25
2023-03-31T01:40:24.856Z,97644.25
2023-03-31T01:43:18.806Z,97654.81
2023-03-31T01:45:51.778Z,97656.09
2023-03-31T01:48:30.385Z,97655.03
2023-03-31T01:51:10.595Z,97649.03
2023-03-31T01:54:02.251Z,97651.53
2023-03-31T01:56:34.500Z,97652.16
2023-03-31T01:59:23.808Z,97664.38
2023-03-31T02:01:57.275Z,97654.22
2023-03-31T02:04:36.925Z,97661.06
2023-03-31T02:07:12.301Z,97655.66
2023-03-31T02:09:43.990Z,97651.94
2023-03-31T02:12:12.764Z,97654.03
2023-03-31T02:14:48.093Z,97654.25
2023-03-31T02:17:22.651Z,97664.19
2023-03-31T02:19:53.077Z,97659.81
2023-03-31T02:22:24.124Z,97648.03
2023-03-31T02:24:53.790Z,97650.31
2023-03-31T02:27:31.840Z,97639.13
2023-03-31T02:29:59.868Z,97651.53
2023-03-31T02:32:38.110Z,97640.78
2023-03-31T02:35:07.433Z,97646.16
2023-03-31T02:37:34.869Z,97636.25
2023-03-31T02:40:10.663Z,97643.69
2023-03-31T02:42:40.480Z,97644.09
2023-03-31T02:45:28.508Z,97641.19
2023-03-31T02:47:55.899Z,97643.69
2023-03-31T02:50:33.297Z,97640.16
2023-03-31T02:53:16.444Z,97636.44
2023-03-31T02:55:58.402Z,97643.47
2023-03-31T02:58:30.775Z,97637.03
2023-03-31T03:01:29.968Z,97636.00
2023-03-31T03:04:25.944Z,97634.97
2023-03-31T03:07:10.876Z,97634.34
2023-03-31T03:10:02.508Z,97634.34
2023-03-31T03:12:41.676Z,97639.94
2023-03-31T03:15:14.634Z,97636.22
2023-03-31T03:17:45.824Z,97632.47
2023-03-31T03:20:14.545Z,97631.66
2023-03-31T03:22:41.441Z,97637.03
2023-03-31T03:25:11.780Z,97633.75
2023-03-31T03:27:39.544Z,97640.78
2023-03-31T03:30:09.272Z,97638.09
2023-03-31T03:32:36.218Z,97637.03
2023-03-31T03:35:04.757Z,97639.34
2023-03-31T03:37:32.226Z,97627.09
2023-03-31T03:39:59.208Z,97633.53
2023-03-31T03:42:26.111Z,97623.81
2023-03-31T03:44:53.093Z,97632.91
2023-03-31T03:47:20.020Z,97617.19
2023-03-31T03:49:48.796Z,97626.69
2023-03-31T03:52:16.624Z,97619.66
2023-03-31T03:54:43.552Z,97616.34
2023-03-31T03:57:11.144Z,97625.03
2023-03-31T03:59:38.084Z,97617.78
2023-03-31T04:02:05.036Z,97617.19
2023-03-31T04:04:32.049Z,97609.13
2023-03-31T04:06:58.951Z,97608.09
2023-03-31T04:09:26.244Z,97605.59
2023-03-31T04:11:53.165Z,97603.94
2023-03-31T04:14:20.067Z,97602.06
2023-03-31T04:16:47.121Z,97609.31
2023-03-31T04:19:17.799Z,97596.88
2023-03-31T04:21:59.022Z,97593.34
2023-03-31T04:24:31.007Z,97592.75
2023-03-31T04:26:58.654Z,97592.13
2023-03-31T04:29:26.980Z,97593.97
2023-03-31T04:31:59.090Z,97586.13
2023-03-31T04:34:35.556Z,97593.56
2023-03-31T04:37:03.672Z,97584.69
2023-03-31T04:39:31.401Z,97591.72
2023-03-31T04:41:59.731Z,97552.63
2023-03-31T04:44:27.460Z,97587.38
2023-03-31T04:46:55.369Z,97589.44
2023-03-31T04:49:22.668Z,97586.13
2023-03-31T04:51:49.798Z,97570.00
2023-03-31T04:54:16.822Z,97571.66
2023-03-31T04:56:43.915Z,97577.03
2023-03-31T04:59:11.346Z,97578.91
2023-03-31T05:01:38.256Z,97576.63
2023-03-31T05:04:05.806Z,97565.25
2023-03-31T05:06:33.381Z,97567.94
2023-03-31T05:09:00.627Z,97556.75
2023-03-31T05:11:27.660Z,97561.72
2023-03-31T05:13:54.861Z,97561.31
2023-03-31T05:16:22.143Z,97562.75
2023-03-31T05:18:49.063Z,97561.13
2023-03-31T05:21:18.981Z,97565.44
2023-03-31T05:23:46.830Z,97551.78
2023-03-31T05:26:14.294Z,97543.72
2023-03-31T05:28:42.353Z,97547.88
2023-03-31T05:31:11.449Z,97532.75
2023-03-31T05:33:42.297Z,97534.81
2023-03-31T05:36:15.632Z,97535.22
2023-03-31T05:38:43.485Z,97543.72
2023-03-31T05:41:12.037Z,97545.13
2023-03-31T05:43:40.080Z,97536.88
2023-03-31T05:46:08.006Z,97537.28
2023-03-31T05:48:35.800Z,97541.59
2023-03-31T05:51:02.811Z,97539.50
2023-03-31T05:53:30.247Z,97542.56
2023-03-31T05:56:06.561Z,97535.53
2023-03-31T05:58:37.462Z,97539.69
2023-03-31T06:01:14.326Z,97538.41
2023-03-31T06:03:42.904Z,97536.75
2023-03-31T06:06:13.329Z,97535.47
2023-03-31T06:08:40.474Z,97536.03
2023-03-31T06:11:09.918Z,97529.53
2023-03-31T06:13:37.747Z,97534.44
2023-03-31T06:16:06.025Z,97539.69
2023-03-31T06:18:35.307Z,97524.91
2023-03-31T06:21:02.772Z,97516.13
2023-03-31T06:23:29.820Z,97534.63
2023-03-31T06:26:04.398Z,97541.91
2023-03-31T06:28:31.476Z,97529.53
2023-03-31T06:31:07.261Z,97527.59
2023-03-31T06:33:35.012Z,97537.38
2023-03-31T06:36:04.461Z,97536.72
2023-03-31T06:38:32.020Z,97533.50
2023-03-31T06:40:58.911Z,97520.53
2023-03-31T06:43:25.884Z,97529.38
2023-03-31T06:45:56.554Z,97530.94
2023-03-31T06:48:25.489Z,97526.34
2023-03-31T06:50:54.871Z,97522.31
2023-03-31T06:53:22.474Z,97518.16
2023-03-31T06:55:49.340Z,97512.34
2023-03-31T06:58:16.240Z,97511.34
2023-03-31T07:00:44.760Z,97513.25
2023-03-31T07:03:12.544Z,97521.00
2023-03-31T07:05:39.944Z,97519.38
2023-03-31T07:08:07.021Z,97511.75
2023-03-31T07:10:34.157Z,97514.66
2023-03-31T07:13:02.314Z,97506.06
2023-03-31T07:15:30.830Z,97508.91
2023-03-31T07:18:02.420Z,97489.38
2023-03-31T07:20:30.869Z,97510.06
2023-03-31T07:22:57.825Z,97505.25
2023-03-31T07:25:25.155Z,97509.25
2023-03-31T07:27:52.102Z,97497.34
2023-03-31T07:30:20.477Z,97493.78
2023-03-31T07:32:51.422Z,97496.31
2023-03-31T07:35:19.468Z,97494.94
2023-03-31T07:37:48.715Z,97496.69
2023-03-31T07:40:19.172Z,97489.44
2023-03-31T07:42:49.252Z,97480.06
2023-03-31T07:45:17.334Z,97491.44
2023-03-31T08:34:26.068Z,97430.56
2023-03-31T08:36:53.152Z,97424.59
2023-03-31T08:39:20.178Z,97421.94
2023-03-31T08:41:59.248Z,97410.84
2023-03-31T08:44:37.786Z,97403.03
2023-03-31T08:47:07.969Z,97409.34
2023-03-31T08:49:48.271Z,97385.31
2023-03-31T08:52:23.672Z,97388.69
2023-03-31T08:54:56.916Z,97390.09
2023-03-31T08:57:46.673Z,97389.78
2023-03-31T09:00:18.755Z,97377.03
2023-03-31T09:03:00.656Z,97370.81
2023-03-31T09:05:58.927Z,97363.09
2023-03-31T09:08:42.414Z,97367.75
2023-03-31T09:11:45.529Z,97360.66
2023-03-31T09:14:43.241Z,97351.59
2023-03-31T09:17:24.397Z,97344.25
2023-03-31T09:19:56.958Z,97346.16
2023-03-31T09:22:30.700Z,97345.50
2023-03-31T09:25:26.792Z,97338.66
2023-03-31T09:27:58.177Z,97340.44
2023-03-31T09:30:34.920Z,97343.53
2023-03-31T09:33:24.196Z,97347.53
2023-03-31T09:35:52.236Z,97334.47
2023-03-31T09:38:19.337Z,97325.28
2023-03-31T09:40:46.348Z,97328.09
2023-03-31T09:43:23.949Z,97314.53
2023-03-31T09:46:07.825Z,97319.94
2023-03-31T09:48:36.778Z,97312.66
2023-03-31T09:51:19.217Z,97292.50
2023-03-31T09:54:18.456Z,97294.47
2023-03-31T09:56:53.261Z,97293.22
2023-03-31T09:59:31.803Z,97285.56
2023-03-31T10:02:03.255Z,97281.53
2023-03-31T10:04:35.727Z,97279.13
2023-03-31T10:07:05.757Z,97267.47
2023-03-31T10:09:34.589Z,97261.47
2023-03-31T10:12:16.492Z,97275.38
2023-03-31T10:14:49.116Z,97278.63
2023-03-31T10:17:18.481Z,97282.44
2023-03-31T10:19:54.778Z,97282.66
2023-03-31T10:22:21.796Z,97289.47
2023-03-31T10:24:50.727Z,97275.84
2023-03-31T10:27:28.252Z,97283.88
2023-03-31T10:29:59.710Z,97282.59
2023-03-31T10:32:30.170Z,97278.56
2023-03-31T10:34:59.154Z,97283.13
2023-03-31T10:37:28.866Z,97274.66
2023-03-31T10:40:15.085Z,97276.56
2023-03-31T10:42:46.645Z,97274.84
2023-03-31T10:45:37.990Z,97267.63
2023-03-31T10:48:07.321Z,97279.03
2023-03-31T10:50:36.812Z,97260.72
2023-03-31T10:53:13.606Z,97222.59
2023-03-31T10:56:03.457Z,97261.44
2023-03-31T10:58:52.010Z,97260.66
2023-03-31T11:01:29.086Z,97262.63
2023-03-31T11:03:57.301Z,97250.22
2023-03-31T11:06:46.153Z,97244.88
2023-03-31T11:09:25.287Z,97250.59
2023-03-31T11:12:10.652Z,97256.16
2023-03-31T11:15:08.127Z,97246.59
2023-03-31T11:18:07.399Z,97237.81
2023-03-31T11:21:11.682Z,97240.88
2023-03-31T11:23:43.177Z,97228.78
2023-03-31T11:26:31.967Z,97214.97
2023-03-31T11:29:26.407Z,97217.13
2023-03-31T11:31:59.499Z,97211.72
2023-03-31T11:34:47.528Z,97204.09
2023-03-31T11:37:41.894Z,97208.16
2023-03-31T11:40:39.064Z,97206.34
2023-03-31T11:43:11.477Z,97207.81
2023-03-31T11:45:53.579Z,97189.63
2023-03-31T11:48:46.757Z,97180.22
2023-03-31T11:51:27.214Z,97192.34
2023-03-31T11:53:56.588Z,97174.38
2023-03-31T11:56:27.350Z,97169.81
2023-03-31T11:58:58.226Z,97167.09
2023-03-31T12:01:36.603Z,97150.22
2023-03-31T12:04:09.914Z,97148.84
2023-03-31T12:06:42.034Z,97153.50
2023-03-31T12:09:24.142Z,97136.28
2023-03-31T12:12:01.304Z,97130.28
2023-03-31T12:14:35.114Z,97124.56
2023-03-31T12:17:10.875Z,97126.47
2023-03-31T12:20:10.880Z,97112.00
2023-03-31T12:22:43.551Z,97107.66
2023-03-31T12:25:23.232Z,97109.03
2023-03-31T12:27:51.772Z,97099.47
2023-03-31T12:30:34.721Z,97097.56
2023-03-31T12:33:18.809Z,97088.81
2023-03-31T12:35:59.831Z,97078.47
2023-03-31T12:38:44.758Z,97086.38
2023-03-31T12:41:45.963Z,97070.50
2023-03-31T12:44:31.169Z,97068.56
2023-03-31T12:47:06.798Z,97062.56
2023-03-31T12:49:42.395Z,97062.31
2023-03-31T12:52:19.516Z,97053.88
2023-03-31T12:55:11.115Z,97055.25
2023-03-31T12:57:38.208Z,97060.22
2023-03-31T13:00:14.022Z,97057.75
2023-03-31T13:02:41.574Z,97059.66
2023-03-31T13:05:36.572Z,97056.69
2023-03-31T13:08:08.697Z,97059.06
2023-03-31T13:10:59.691Z,97051.09
2023-03-31T13:13:27.182Z,97047.75
2023-03-31T13:15:57.170Z,97031.56
2023-03-31T13:18:24.541Z,97047.41
2023-03-31T13:21:06.414Z,97032.88
2023-03-31T13:23:37.954Z,97048.84
2023-03-31T13:26:07.156Z,97045.69
2023-03-31T13:28:40.218Z,97030.41
2023-03-31T13:31:10.616Z,97013.69
2023-03-31T13:33:58.398Z,97028.66
2023-03-31T13:36:34.416Z,97032.47
2023-03-31T13:39:13.340Z,97032.19
2023-03-31T13:41:49.156Z,97031.94
2023-03-31T13:44:38.606Z,97031.59
2023-03-31T13:47:20.223Z,97025.16
2023-03-31T13:50:16.697Z,96999.16
2023-03-31T13:53:11.544Z,97001.97
2023-03-31T13:56:12.130Z,97001.00
2023-03-31T13:59:11.524Z,97002.38
2023-03-31T14:02:16.074Z,96997.47
2023-03-31T14:04:58.688Z,96995.25
2023-03-31T14:07:51.164Z,96984.22
2023-03-31T14:10:36.168Z,96985.81
2023-03-31T14:13:20.688Z,96986.09
2023-03-31T14:15:57.232Z,96982.50
2023-03-31T14:18:36.568Z,96986.69
2023-03-31T14:21:29.282Z,96980.00
2023-03-31T14:24:04.861Z,96991.81
2023-03-31T14:26:37.442Z,96991.88
2023-03-31T14:29:27.563Z,96989.56
2023-03-31T14:32:07.519Z,96987.25
2023-03-31T14:34:43.317Z,96971.69
2023-03-31T14:37:14.133Z,96978.97
2023-03-31T14:39:44.840Z,96977.31
2023-03-31T14:42:21.903Z,96971.88
2023-03-31T14:44:49.969Z,96973.25
2023-03-31T14:47:22.467Z,96962.16
2023-03-31T14:50:00.478Z,96958.91
2023-03-31T14:52:30.601Z,96958.25
2023-03-31T14:54:57.538Z,96953.66
2023-03-31T14:57:31.689Z,96921.72
2023-03-31T14:59:59.829Z,96935.13
2023-03-31T15:02:47.095Z,96927.31
2023-03-31T15:05:37.889Z,96922.44
2023-03-31T15:08:13.895Z,96922.66
2023-03-31T15:10:46.276Z,96922.41
2023-03-31T15:13:20.911Z,96916.97
2023-03-31T15:15:47.828Z,96913.69
2023-03-31T15:18:16.547Z,96900.06
2023-03-31T15:20:45.640Z,96893.56
2023-03-31T15:23:32.887Z,96896.19
2023-03-31T15:26:08.370Z,96887.75
2023-03-31T15:28:51.487Z,96883.97
2023-03-31T15:31:19.058Z,96891.28
2023-03-31T15:33:47.499Z,96880.38
2023-03-31T15:36:15.044Z,96866.78
2023-03-31T15:38:43.090Z,96870.75
2023-03-31T15:41:14.905Z,96862.28
2023-03-31T15:43:42.326Z,96855.03
2023-03-31T15:46:19.487Z,96852.59
2023-03-31T15:48:55.083Z,96834.84
2023-03-31T15:51:26.233Z,96847.38
2023-03-31T15:53:54.912Z,96849.00
2023-03-31T15:56:45.724Z,96830.03
2023-03-31T15:59:33.763Z,96819.22
2023-03-31T16:02:06.130Z,96818.63
2023-03-31T16:04:33.673Z,96818.59
2023-03-31T16:07:08.465Z,96807.19
2023-03-31T16:09:48.461Z,96795.78
2023-03-31T16:12:24.054Z,96805.00
2023-03-31T16:15:02.298Z,96807.88
2023-03-31T16:17:32.849Z,96794.03
2023-03-31T16:20:11.363Z,96791.28
2023-03-31T16:22:43.879Z,96793.59
2023-03-31T16:25:17.818Z,96785.66
2023-03-31T16:27:48.860Z,96774.34
2023-03-31T16:30:42.659Z,96788.94
2023-03-31T16:33:18.770Z,96781.88
2023-03-31T16:35:49.720Z,96777.81
2023-03-31T16:38:17.370Z,96770.41
2023-03-31T16:40:49.982Z,96783.94
2023-03-31T16:43:21.430Z,96774.19
2023-03-31T16:45:57.076Z,96778.22
2023-03-31T16:48:26.550Z,96769.28
2023-03-31T16:50:58.516Z,96718.00
2023-03-31T16:53:28.069Z,96763.28
2023-03-31T16:55:56.466Z,96766.00
2023-03-31T16:58:24.479Z,96767.34
2023-03-31T17:00:52.215Z,96769.22
2023-03-31T17:03:19.527Z,96758.88
2023-03-31T17:05:50.663Z,96757.75
2023-03-31T17:08:17.673Z,96759.16
2023-03-31T17:10:55.718Z,96745.63
2023-03-31T17:13:22.761Z,96732.09
2023-03-31T17:15:52.096Z,96734.22
2023-03-31T17:18:23.092Z,96732.56
2023-03-31T17:20:50.168Z,96734.97
2023-03-31T17:23:17.091Z,96735.47
2023-03-31T17:25:50.725Z,96725.66
2023-03-31T17:28:18.721Z,96726.16
2023-03-31T17:30:48.186Z,96721.50
2023-03-31T17:33:16.472Z,96719.81
2023-03-31T17:35:44.195Z,96724.34
2023-03-31T17:38:14.546Z,96715.59
2023-03-31T17:40:41.686Z,96708.72
2023-03-31T17:43:08.744Z,96718.66
2023-03-31T17:45:35.773Z,96716.94
2023-03-31T17:48:03.319Z,96715.81
2023-03-31T17:50:30.432Z,96708.19
2023-03-31T17:52:58.638Z,96714.66
2023-03-31T17:55:25.624Z,96711.41
2023-03-31T17:57:52.621Z,96711.34
2023-03-31T18:00:19.994Z,96739.59
2023-03-31T18:02:47.173Z,96780.38
2023-03-31T18:05:15.865Z,96768.81
2023-03-31T18:07:44.830Z,96770.38
2023-03-31T18:10:12.286Z,96770.66
2023-03-31T18:12:39.641Z,96787.44
2023-03-31T18:15:07.481Z,96781.09
2023-03-31T18:17:34.488Z,96784.72
2023-03-31T18:20:01.529Z,96778.25
2023-03-31T18:22:29.060Z,96769.06
2023-03-31T18:24:56.815Z,96770.38
2023-03-31T18:27:25.211Z,96758.25
2023-03-31T18:29:52.607Z,96745.66
2023-03-31T18:32:20.224Z,96743.88
2023-03-31T18:34:47.360Z,96744.59
2023-03-31T18:37:14.833Z,96743.78
2023-03-31T18:39:42.371Z,96737.47
2023-03-31T18:42:09.313Z,96733.63
2023-03-31T18:44:36.528Z,96734.44
2023-03-31T18:47:03.593Z,96732.56
2023-03-31T18:49:30.768Z,96723.31
2023-03-31T18:51:59.038Z,96731.75
2023-03-31T18:54:26.293Z,96735.50
2023-03-31T18:56:53.247Z,96732.56
2023-03-31T18:59:20.283Z,96730.34
2023-03-31T19:01:47.259Z,96729.16
2023-03-31T19:04:14.402Z,96725.94
2023-03-31T19:06:41.364Z,96719.56
2023-03-31T19:09:08.492Z,96710.31
2023-03-31T19:11:35.508Z,96706.94
2023-03-31T19:14:02.922Z,96701.34
2023-03-31T19:16:29.977Z,96702.03
2023-03-31T19:18:57.176Z,96714.13
2023-03-31T19:21:24.850Z,96709.44
2023-03-31T19:23:51.909Z,96697.25
2023-03-31T19:26:19.978Z,96684.59
2023-03-31T19:28:48.458Z,96688.00
2023-03-31T19:31:15.904Z,96681.69
2023-03-31T19:33:43.297Z,96686.28
2023-03-31T19:36:10.233Z,96698.13
2023-03-31T19:38:37.272Z,96683.31
2023-03-31T19:41:07.846Z,96682.75
2023-03-31T19:43:35.259Z,96666.72
2023-03-31T19:46:02.461Z,96674.22
2023-03-31T19:48:32.393Z,96673.25
2023-03-31T19:51:01.898Z,96679.97
2023-03-31T19:53:28.930Z,96681.34
2023-03-31T19:55:57.821Z,96670.34
2023-03-31T19:58:25.702Z,96669.31
2023-03-31T20:00:54.606Z,96679.84
2023-03-31T20:03:23.698Z,96680.69
2023-03-31T20:05:52.148Z,96655.22
2023-03-31T20:08:19.132Z,96685.63
2023-03-31T20:10:46.261Z,96684.25
2023-03-31T20:13:13.268Z,96676.66
2023-03-31T20:15:41.574Z,96688.47
2023-03-31T20:18:08.713Z,96684.72
2023-03-31T20:20:35.887Z,96683.91
2023-03-31T20:23:04.074Z,96680.38
2023-03-31T20:25:31.228Z,96682.13
2023-03-31T20:27:58.378Z,96691.59
2023-03-31T20:30:25.318Z,96690.59
2023-03-31T20:32:52.366Z,96686.00
2023-03-31T20:35:19.391Z,96678.91
2023-03-31T20:37:46.424Z,96679.09
2023-03-31T20:40:13.443Z,96683.03
2023-03-31T20:42:40.335Z,96680.53
2023-03-31T20:45:07.968Z,96686.91
2023-03-31T20:47:59.658Z,96692.25
2023-03-31T20:50:26.660Z,96688.56
2023-03-31T20:52:53.523Z,96694.06
2023-03-31T20:55:20.488Z,96697.38
2023-03-31T20:57:48.112Z,96698.50
2023-03-31T21:00:15.770Z,96700.16
2023-03-31T21:02:43.239Z,96702.84
2023-03-31T21:05:10.372Z,96708.00
2023-03-31T21:07:37.257Z,96714.22
2023-03-31T21:10:04.960Z,96694.75
2023-03-31T21:12:31.923Z,96712.00
2023-03-31T21:14:59.285Z,96718.47
2023-03-31T21:17:26.329Z,96718.34
2023-03-31T21:19:53.294Z,96725.91
2023-03-31T21:22:20.232Z,96709.09
2023-03-31T21:24:47.147Z,96707.22
2023-03-31T21:27:14.234Z,96709.28
2023-03-31T21:29:41.258Z,96710.56
2023-03-31T21:32:09.403Z,96701.00
2023-03-31T21:34:36.801Z,96692.56
2023-03-31T21:37:03.783Z,96702.69
2023-03-31T21:39:31.013Z,96714.63
2023-03-31T21:41:58.243Z,96714.63
2023-03-31T21:44:25.225Z,96723.22
2023-03-31T21:46:53.140Z,96713.47
2023-03-31T21:49:20.199Z,96711.03
2023-03-31T21:51:47.479Z,96713.66
2023-03-31T21:54:14.388Z,96721.47
2023-03-31T21:56:41.313Z,96716.91
2023-03-31T21:59:08.935Z,96718.22
2023-03-31T22:01:36.208Z,96717.91
2023-03-31T22:04:03.190Z,96709.94
2023-03-31T22:06:31.189Z,96712.28
2023-03-31T22:08:58.125Z,96712.53
2023-03-31T22:11:25.088Z,96719.69
2023-03-31T22:13:52.073Z,96722.41
2023-03-31T22:16:21.630Z,96714.56
2023-03-31T22:18:50.495Z,96729.09
2023-03-31T22:21:26.529Z,96727.94
2023-03-31T22:24:01.456Z,96733.47
2023-03-31T22:26:30.134Z,96723.41
2023-03-31T22:28:57.841Z,96719.81
2023-03-31T22:31:26.457Z,96722.94
2023-03-31T22:33:53.546Z,96730.16
2023-03-31T22:36:20.984Z,96740.34
2023-03-31T22:38:48.068Z,96749.34
2023-03-31T22:41:15.079Z,96749.84
2023-03-31T22:43:44.550Z,96746.81
2023-03-31T22:46:12.878Z,96738.38
2023-03-31T22:48:40.780Z,96742.94
2023-03-31T22:51:09.085Z,96739.31
2023-03-31T22:53:36.208Z,96731.59
2023-03-31T22:56:09.008Z,96747.50
2023-03-31T22:58:35.935Z,96748.81
2023-03-31T23:01:03.412Z,96747.66
2023-03-31T23:03:31.045Z,96745.19
2023-03-31T23:05:58.096Z,96753.53
2023-03-31T23:08:25.241Z,96735.09
2023-03-31T23:10:59.752Z,96730.31
2023-03-31T23:13:27.844Z,96742.75
2023-03-31T23:15:55.115Z,96739.69
2023-03-31T23:18:22.716Z,96738.84
2023-03-31T23:20:49.713Z,96723.16
2023-03-31T23:23:16.759Z,96729.38
2023-03-31T23:25:43.788Z,96732.91
2023-03-31T23:28:10.756Z,96745.19
2023-03-31T23:30:37.672Z,96735.47
2023-03-31T23:33:04.662Z,96734.31
2023-03-31T23:35:31.925Z,96739.09
2023-03-31T23:37:59.053Z,96741.22
2023-03-31T23:40:25.987Z,96742.50
2023-03-31T23:42:52.978Z,96737.34
2023-03-31T23:45:20.299Z,96718.72
2023-03-31T23:47:47.287Z,96730.53
2023-03-31T23:50:14.417Z,96716.25
2023-03-31T23:52:41.808Z,96719.78
2023-03-31T23:55:09.274Z,96717.34
2023-03-31T23:57:36.316Z,96717.78
